Time;durP1;ratioP1;P1;durP2;ratioP2;P2;SDS_P1;SDS_P2;PMS_P1;PMS_P2;Temp;Humidity;BMP_temperature;BMP_pressure;BME280_temperature;BME280_humidity;BME280_pressure;Samples;Min_cycle;Max_cycle;Signal;HPM_P1;HPM_P2
2022/02/20 00:02:16;;;;;;;5.63;1.13;;;29.20;92.70;;;;;;5042138;28;20033;-73
2022/02/20 00:04:45;;;;;;;6.05;0.85;;;29.10;93.90;;;;;;5041401;28;20112;-75
2022/02/20 00:07:13;;;;;;;5.80;0.80;;;28.90;93.10;;;;;;5047086;28;20063;-74
2022/02/20 00:09:43;;;;;;;4.78;1.00;;;28.70;92.60;;;;;;5046320;28;20919;-75
2022/02/20 00:12:10;;;;;;;6.95;1.65;;;28.40;93.00;;;;;;5044776;28;20090;-76
2022/02/20 00:14:38;;;;;;;5.97;1.42;;;28.20;94.20;;;;;;5047269;28;20036;-76
2022/02/20 00:17:06;;;;;;;6.45;0.88;;;28.20;93.60;;;;;;5050486;28;20112;-76
2022/02/20 00:19:33;;;;;;;3.90;0.80;;;28.20;93.80;;;;;;5049267;28;20074;-74
2022/02/20 00:22:00;;;;;;;5.00;0.98;;;28.50;92.60;;;;;;5048455;28;20025;-80
2022/02/20 00:24:28;;;;;;;6.43;1.30;;;28.50;92.90;;;;;;5045646;28;20040;-75
2022/02/20 00:26:56;;;;;;;5.50;1.00;;;28.60;93.50;;;;;;5040348;28;20017;-77
2022/02/20 00:29:24;;;;;;;6.63;1.73;;;29.00;92.70;;;;;;5044054;28;20033;-77
2022/02/20 00:31:51;;;;;;;3.90;0.98;;;29.30;93.10;;;;;;5047686;28;20025;-75
2022/02/20 00:34:18;;;;;;;9.05;1.50;;;29.10;93.00;;;;;;5044400;28;20028;-76
2022/02/20 00:36:46;;;;;;;10.25;2.30;;;28.80;93.80;;;;;;5046260;28;20476;-76
2022/02/20 00:39:13;;;;;;;4.43;1.00;;;28.70;93.50;;;;;;5040124;28;20501;-79
2022/02/20 00:41:40;;;;;;;4.60;1.50;;;28.20;93.60;;;;;;5042936;28;20025;-77
2022/02/20 00:44:08;;;;;;;4.55;1.00;;;27.70;94.30;;;;;;5060462;28;20025;-77
2022/02/20 00:46:35;;;;;;;4.80;1.30;;;27.50;94.20;;;;;;5041164;28;20048;-74
2022/02/20 00:49:03;;;;;;;2.65;0.80;;;27.50;94.30;;;;;;5046934;28;20028;-76
2022/02/20 00:51:31;;;;;;;7.10;1.00;;;27.50;94.30;;;;;;5042075;28;20079;-74
2022/02/20 00:53:58;;;;;;;5.25;1.60;;;27.50;94.40;;;;;;5040247;28;20106;-78
2022/02/20 00:56:25;;;;;;;8.50;1.63;;;27.50;94.20;;;;;;5042798;28;20568;-73
2022/02/20 00:58:52;;;;;;;4.35;1.10;;;27.40;94.80;;;;;;5039635;28;20526;-75
2022/02/20 01:01:20;;;;;;;5.68;1.75;;;27.40;95.40;;;;;;5039168;28;20021;-76
2022/02/20 01:03:47;;;;;;;4.45;1.58;;;27.40;94.70;;;;;;5044132;28;20138;-77
2022/02/20 01:06:14;;;;;;;5.57;1.48;;;27.70;93.90;;;;;;5045217;28;20029;-79
2022/02/20 01:08:42;;;;;;;8.32;1.00;;;27.90;93.90;;;;;;5041510;28;20064;-77
2022/02/20 01:11:09;;;;;;;4.03;1.55;;;28.00;93.60;;;;;;5048839;28;20024;-75
2022/02/20 01:13:36;;;;;;;9.32;1.48;;;28.60;93.80;;;;;;5045998;28;20098;-74
2022/02/20 01:16:04;;;;;;;10.25;1.77;;;29.20;93.40;;;;;;5035210;28;20055;-74
2022/02/20 01:18:31;;;;;;;4.43;1.42;;;29.70;92.50;;;;;;5050416;28;20037;-74
2022/02/20 01:20:59;;;;;;;3.75;1.58;;;29.90;92.90;;;;;;5044732;28;20388;-72
2022/02/20 01:23:26;;;;;;;4.00;1.10;;;30.20;92.60;;;;;;5050113;28;20029;-73
2022/02/20 01:25:54;;;;;;;2.28;0.93;;;30.10;93.10;;;;;;5048567;28;20076;-74
2022/02/20 01:28:21;;;;;;;6.68;0.93;;;30.20;93.00;;;;;;5049362;28;20699;-75
2022/02/20 01:30:48;;;;;;;9.10;1.38;;;30.10;92.30;;;;;;5047201;28;20037;-80
2022/02/20 01:33:17;;;;;;;3.35;0.90;;;29.80;92.80;;;;;;5047699;28;20061;-76
2022/02/20 01:35:45;;;;;;;3.90;1.45;;;29.60;92.10;;;;;;5044087;28;20033;-76
2022/02/20 01:38:15;;;;;;;5.40;1.92;;;29.80;93.20;;;;;;5047058;28;20111;-76
2022/02/20 01:40:44;;;;;;;5.95;1.77;;;30.00;92.50;;;;;;5045364;28;20117;-77
2022/02/20 01:43:12;;;;;;;6.53;1.20;;;30.00;92.60;;;;;;5050169;28;20037;-76
2022/02/20 01:45:40;;;;;;;4.47;0.80;;;30.10;92.40;;;;;;5048713;28;20047;-77
2022/02/20 01:48:08;;;;;;;4.53;2.17;;;30.20;93.10;;;;;;5043994;28;20048;-80
2022/02/20 01:50:36;;;;;;;3.03;1.02;;;30.50;92.70;;;;;;5036539;28;20120;-74
2022/02/20 01:53:03;;;;;;;3.70;0.90;;;30.30;92.00;;;;;;5040231;28;20078;-78
2022/02/20 01:55:30;;;;;;;4.50;0.93;;;30.10;92.30;;;;;;5039919;28;20032;-76
2022/02/20 01:57:58;;;;;;;5.50;1.02;;;30.20;92.30;;;;;;5037913;28;20037;-78
2022/02/20 02:00:25;;;;;;;6.28;1.05;;;30.50;92.20;;;;;;5038042;28;20025;-77
2022/02/20 02:02:53;;;;;;;3.17;0.80;;;30.60;92.50;;;;;;5038131;28;20013;-77
2022/02/20 02:05:20;;;;;;;9.27;1.80;;;30.80;92.50;;;;;;5035586;28;20472;-76
2022/02/20 02:07:50;;;;;;;2.38;1.30;;;31.20;92.00;;;;;;5039763;28;20029;-76
2022/02/20 02:10:17;;;;;;;8.02;0.90;;;31.40;91.70;;;;;;5040606;28;20055;-77
2022/02/20 02:12:47;;;;;;;6.10;0.70;;;31.60;91.40;;;;;;5041895;28;20372;-76
2022/02/20 02:15:15;;;;;;;4.20;1.05;;;32.00;91.50;;;;;;5041383;28;20082;-75
2022/02/20 02:17:42;;;;;;;3.45;1.52;;;32.10;90.70;;;;;;5045319;28;20143;-75
2022/02/20 02:20:10;;;;;;;4.03;0.90;;;32.00;90.20;;;;;;5041725;28;20021;-76
2022/02/20 02:22:38;;;;;;;4.63;1.65;;;32.10;90.20;;;;;;5041843;28;20180;-79
2022/02/20 02:25:07;;;;;;;5.45;1.05;;;32.30;90.20;;;;;;5043358;28;20033;-79
2022/02/20 02:27:38;;;;;;;6.80;1.50;;;32.40;89.20;;;;;;5040292;28;20033;-76
2022/02/20 02:30:08;;;;;;;4.07;1.10;;;32.20;90.00;;;;;;5043603;28;20033;-79
2022/02/20 02:32:35;;;;;;;7.22;1.30;;;32.20;90.30;;;;;;5044158;28;20037;-74
2022/02/20 02:35:03;;;;;;;4.55;1.20;;;32.40;90.20;;;;;;5042482;28;20102;-80
2022/02/20 02:37:31;;;;;;;5.00;1.17;;;32.60;90.50;;;;;;5042664;28;20278;-77
2022/02/20 02:39:58;;;;;;;3.38;0.93;;;32.40;89.40;;;;;;5042426;28;21600;-76
2022/02/20 02:42:26;;;;;;;2.83;0.93;;;32.40;90.30;;;;;;5045682;28;20820;-75
2022/02/20 02:44:53;;;;;;;3.00;1.00;;;32.60;90.10;;;;;;5050508;28;20037;-76
2022/02/20 02:47:20;;;;;;;6.25;1.20;;;33.00;90.10;;;;;;5051540;28;20025;-74
2022/02/20 02:49:47;;;;;;;2.70;1.15;;;33.10;90.60;;;;;;5049665;28;20407;-76
2022/02/20 02:52:15;;;;;;;5.22;1.45;;;33.00;89.30;;;;;;5050040;28;20020;-77
2022/02/20 02:54:42;;;;;;;7.15;1.08;;;33.10;87.50;;;;;;5050353;28;20382;-78
2022/02/20 02:57:10;;;;;;;4.97;1.30;;;32.80;88.90;;;;;;5051532;28;20040;-76
2022/02/20 02:59:37;;;;;;;3.60;1.38;;;32.80;89.70;;;;;;5049904;28;20037;-80
2022/02/20 03:02:04;;;;;;;3.10;0.90;;;33.00;89.00;;;;;;5051761;28;20025;-78
2022/02/20 03:04:32;;;;;;;3.47;0.80;;;33.40;89.30;;;;;;5046387;28;20361;-76
2022/02/20 03:07:00;;;;;;;4.45;0.77;;;33.30;88.70;;;;;;5051698;28;20396;-79
2022/02/20 03:09:28;;;;;;;5.82;0.88;;;32.90;87.70;;;;;;5044251;28;20021;-77
2022/02/20 03:11:55;;;;;;;3.30;1.23;;;32.90;88.80;;;;;;5039407;28;20095;-75
2022/02/20 03:14:23;;;;;;;3.90;0.88;;;33.10;89.10;;;;;;5039957;28;20036;-76
2022/02/20 03:16:52;;;;;;;4.30;0.98;;;33.30;88.50;;;;;;5041790;28;20106;-80
2022/02/20 03:19:20;;;;;;;3.17;1.23;;;33.30;88.80;;;;;;5041234;28;20551;-77
2022/02/20 03:21:47;;;;;;;2.42;1.08;;;33.30;88.10;;;;;;5040404;28;20353;-75
2022/02/20 03:24:15;;;;;;;4.05;1.67;;;32.90;88.90;;;;;;5043262;28;22642;-81
2022/02/20 03:26:42;;;;;;;4.45;1.73;;;33.00;89.90;;;;;;5044245;28;20429;-77
2022/02/20 03:29:09;;;;;;;2.10;0.77;;;33.00;89.80;;;;;;5043142;28;20131;-78
2022/02/20 03:31:37;;;;;;;3.13;0.93;;;32.80;89.80;;;;;;5038684;28;20041;-74
2022/02/20 03:34:04;;;;;;;3.25;1.00;;;33.00;90.00;;;;;;5042182;28;20033;-76
2022/02/20 03:36:32;;;;;;;4.38;0.90;;;33.00;89.50;;;;;;5043306;28;20112;-77
2022/02/20 03:38:59;;;;;;;3.13;1.05;;;33.00;89.90;;;;;;5042019;28;20025;-74
2022/02/20 03:41:27;;;;;;;5.88;1.23;;;33.20;89.00;;;;;;5044157;28;20369;-73
2022/02/20 03:43:54;;;;;;;4.72;1.27;;;33.10;88.60;;;;;;5045503;28;20460;-76
2022/02/20 03:46:22;;;;;;;5.45;1.00;;;33.20;90.10;;;;;;5044574;28;20044;-73
2022/02/20 03:48:49;;;;;;;3.10;1.05;;;33.40;87.90;;;;;;5040224;28;20018;-77
2022/02/20 03:51:16;;;;;;;3.55;0.77;;;33.50;88.00;;;;;;5040557;28;20357;-74
2022/02/20 03:53:44;;;;;;;2.88;0.70;;;33.60;87.80;;;;;;5041412;28;20098;-75
2022/02/20 03:56:11;;;;;;;3.05;0.80;;;33.70;89.40;;;;;;5041831;28;20021;-74
2022/02/20 03:58:38;;;;;;;2.67;1.08;;;33.70;88.20;;;;;;5042679;28;20040;-76
2022/02/20 04:01:06;;;;;;;5.13;1.77;;;33.60;87.40;;;;;;5041190;28;20113;-73
2022/02/20 04:03:33;;;;;;;2.70;0.68;;;33.40;88.00;;;;;;5043925;28;20029;-74
2022/02/20 04:06:02;;;;;;;3.83;1.13;;;33.40;87.10;;;;;;5039996;28;20709;-75
2022/02/20 04:08:30;;;;;;;4.53;1.00;;;33.50;87.40;;;;;;5038522;28;20029;-74
2022/02/20 04:10:59;;;;;;;3.72;0.80;;;33.30;88.00;;;;;;5040346;28;20049;-78
2022/02/20 04:13:26;;;;;;;2.00;0.85;;;33.20;88.70;;;;;;5045966;28;20025;-75
2022/02/20 04:15:54;;;;;;;2.60;0.63;;;33.40;88.10;;;;;;5043976;28;20059;-76
2022/02/20 04:18:21;;;;;;;3.38;0.93;;;33.50;87.50;;;;;;5040568;28;20017;-74
2022/02/20 04:20:49;;;;;;;4.13;1.30;;;33.70;87.40;;;;;;5039626;28;20643;-76
2022/02/20 04:23:16;;;;;;;2.58;0.80;;;33.70;86.80;;;;;;5044507;28;20096;-78
2022/02/20 04:25:43;;;;;;;3.00;1.00;;;33.50;88.10;;;;;;5038142;28;20096;-75
2022/02/20 04:28:11;;;;;;;2.55;0.77;;;33.60;88.30;;;;;;5042048;28;20101;-78
2022/02/20 04:30:39;;;;;;;4.00;0.98;;;33.60;87.30;;;;;;5040299;28;20025;-75
2022/02/20 04:33:07;;;;;;;3.35;1.02;;;33.50;87.60;;;;;;5039550;28;20026;-74
2022/02/20 04:35:34;;;;;;;3.13;0.98;;;33.50;87.10;;;;;;5038167;28;20471;-74
2022/02/20 04:38:01;;;;;;;3.20;0.65;;;33.20;88.40;;;;;;5040423;28;20120;-77
2022/02/20 04:40:30;;;;;;;4.25;1.30;;;33.30;87.40;;;;;;5043945;28;20086;-77
2022/02/20 04:42:57;;;;;;;4.45;1.10;;;33.30;88.50;;;;;;5046732;28;20123;-83
2022/02/20 04:45:24;;;;;;;2.28;0.60;;;33.40;88.20;;;;;;5047402;28;20076;-79
2022/02/20 04:47:52;;;;;;;3.40;0.80;;;33.30;87.80;;;;;;5048590;28;20045;-74
2022/02/20 04:50:19;;;;;;;2.67;0.52;;;33.40;87.70;;;;;;5048992;28;20060;-75
2022/02/20 04:52:46;;;;;;;4.93;1.33;;;33.40;87.10;;;;;;5047719;28;20037;-74
2022/02/20 04:55:14;;;;;;;3.45;1.15;;;33.50;87.60;;;;;;5048040;28;20744;-79
2022/02/20 04:57:41;;;;;;;3.25;1.10;;;33.60;86.70;;;;;;5047916;28;20479;-78
2022/02/20 05:00:11;;;;;;;2.47;0.60;;;33.50;87.60;;;;;;5044993;28;20025;-75
2022/02/20 05:02:39;;;;;;;3.10;0.93;;;33.50;86.80;;;;;;5047772;28;20052;-74
2022/02/20 05:05:07;;;;;;;3.35;1.02;;;33.30;88.10;;;;;;5047081;28;20072;-77
2022/02/20 05:07:35;;;;;;;4.63;0.90;;;33.20;87.90;;;;;;5048020;28;20036;-77
2022/02/20 05:10:03;;;;;;;2.22;0.80;;;33.20;87.90;;;;;;5045754;28;20040;-75
2022/02/20 05:12:30;;;;;;;2.58;0.50;;;33.00;88.10;;;;;;5037646;28;20050;-75
2022/02/20 05:14:58;;;;;;;5.22;0.75;;;33.00;87.90;;;;;;5035797;28;20017;-75
2022/02/20 05:17:25;;;;;;;2.17;0.90;;;32.90;88.20;;;;;;5039249;28;20115;-75
2022/02/20 05:19:52;;;;;;;2.55;1.33;;;33.10;87.80;;;;;;5040517;28;20063;-78
2022/02/20 05:22:20;;;;;;;4.32;0.90;;;33.00;87.10;;;;;;5035476;28;20032;-79
2022/02/20 05:24:50;;;;;;;3.55;0.65;;;33.00;87.80;;;;;;5039375;28;20041;-75
2022/02/20 05:27:17;;;;;;;1.42;0.85;;;32.90;87.80;;;;;;5039937;28;20028;-78
2022/02/20 05:29:44;;;;;;;2.63;1.42;;;33.00;88.50;;;;;;5037556;28;20063;-73
2022/02/20 05:32:12;;;;;;;3.97;0.88;;;33.10;88.00;;;;;;5038515;28;20456;-75
2022/02/20 05:34:39;;;;;;;2.50;0.90;;;33.00;87.60;;;;;;5033702;28;20021;-75
2022/02/20 05:37:07;;;;;;;2.95;1.00;;;33.00;88.00;;;;;;5038923;28;20476;-75
2022/02/20 05:39:34;;;;;;;2.03;0.60;;;33.10;88.80;;;;;;5046754;28;20032;-73
2022/02/20 05:42:02;;;;;;;2.33;1.00;;;33.00;87.90;;;;;;5043760;28;20527;-73
2022/02/20 05:44:29;;;;;;;1.33;0.55;;;32.80;87.70;;;;;;5045131;28;20041;-74
2022/02/20 05:46:56;;;;;;;5.55;1.27;;;32.70;88.30;;;;;;5046121;28;20537;-73
2022/02/20 05:49:24;;;;;;;3.78;0.90;;;32.80;88.30;;;;;;5046771;28;20021;-74
2022/02/20 05:51:51;;;;;;;2.20;0.57;;;32.80;88.40;;;;;;5049494;28;20430;-78
2022/02/20 05:54:18;;;;;;;2.08;0.60;;;32.80;87.50;;;;;;5047739;28;20398;-73
2022/02/20 05:56:46;;;;;;;2.58;0.80;;;32.70;88.10;;;;;;5053626;28;20211;-73
2022/02/20 05:59:13;;;;;;;9.98;1.40;;;32.60;89.40;;;;;;5051923;28;20025;-77
2022/02/20 06:01:40;;;;;;;4.93;0.60;;;32.70;88.80;;;;;;5044797;28;20063;-74
2022/02/20 06:04:08;;;;;;;1.58;0.50;;;32.80;87.30;;;;;;5046203;28;20028;-73
2022/02/20 06:06:35;;;;;;;4.18;0.90;;;32.80;88.10;;;;;;5044937;28;20037;-73
2022/02/20 06:09:03;;;;;;;2.50;0.95;;;32.80;87.50;;;;;;5042561;28;20144;-73
2022/02/20 06:11:30;;;;;;;4.72;1.23;;;32.80;87.60;;;;;;5051746;28;20029;-73
2022/02/20 06:13:58;;;;;;;1.52;0.63;;;32.70;88.00;;;;;;5048754;28;20047;-75
2022/02/20 06:16:25;;;;;;;4.38;0.90;;;32.70;87.90;;;;;;5048631;28;20029;-75
2022/02/20 06:18:53;;;;;;;2.15;0.80;;;32.60;87.60;;;;;;5044464;28;20065;-73
2022/02/20 06:21:20;;;;;;;2.83;0.57;;;32.50;88.40;;;;;;5049810;28;20029;-78
2022/02/20 06:23:47;;;;;;;3.40;0.70;;;32.60;88.30;;;;;;5048822;28;20029;-79
2022/02/20 06:26:15;;;;;;;2.08;0.60;;;32.60;87.80;;;;;;5047941;28;20106;-76
2022/02/20 06:28:42;;;;;;;2.58;0.63;;;32.60;88.80;;;;;;5051807;28;20021;-76
2022/02/20 06:31:09;;;;;;;2.58;0.88;;;32.50;88.70;;;;;;5050790;28;20040;-75
2022/02/20 06:33:36;;;;;;;1.58;0.70;;;32.40;88.30;;;;;;5045001;28;20036;-77
2022/02/20 06:36:04;;;;;;;2.53;0.52;;;32.40;87.80;;;;;;5052406;28;20025;-82
2022/02/20 06:38:31;;;;;;;2.63;0.75;;;32.20;88.50;;;;;;5049494;28;20562;-80
2022/02/20 06:40:59;;;;;;;1.80;0.57;;;32.30;88.60;;;;;;5048080;28;20029;-77
2022/02/20 06:43:27;;;;;;;2.90;0.73;;;32.20;88.40;;;;;;5048564;28;20048;-75
2022/02/20 06:45:54;;;;;;;1.92;0.52;;;32.30;89.20;;;;;;5049719;28;20040;-76
2022/02/20 06:48:23;;;;;;;3.25;1.17;;;32.20;88.20;;;;;;5051778;28;20468;-80
2022/02/20 06:50:50;;;;;;;2.95;0.60;;;32.10;88.90;;;;;;5051120;28;20033;-77
2022/02/20 06:57:07;;;;;;;4.53;0.77;;;32.10;89.70;;;;;;5050105;28;20098;-77
2022/02/20 06:59:34;;;;;;;5.28;0.73;;;32.10;89.00;;;;;;5050584;28;20795;-75
2022/02/20 07:02:01;;;;;;;1.55;1.20;;;32.10;89.10;;;;;;5045175;28;20098;-74
2022/02/20 07:04:29;;;;;;;3.33;0.60;;;32.10;89.40;;;;;;5047482;28;20143;-75
2022/02/20 07:06:57;;;;;;;2.92;0.90;;;32.00;89.10;;;;;;5033940;28;20424;-74
2022/02/20 07:09:24;;;;;;;3.03;0.93;;;31.90;89.10;;;;;;5051181;28;20036;-75
2022/02/20 07:11:51;;;;;;;3.17;1.08;;;31.70;88.80;;;;;;5051075;28;20021;-76
2022/02/20 07:14:19;;;;;;;1.35;0.40;;;31.40;89.40;;;;;;5049903;28;20094;-81
2022/02/20 07:16:48;;;;;;;2.10;0.80;;;31.30;89.50;;;;;;5047948;28;20155;-75
2022/02/20 07:19:15;;;;;;;1.48;0.77;;;31.30;89.90;;;;;;5040434;28;20667;-78
2022/02/20 07:21:43;;;;;;;2.63;1.27;;;31.40;90.10;;;;;;5040616;28;20515;-78
2022/02/20 07:24:11;;;;;;;3.92;0.75;;;31.40;90.10;;;;;;5048566;28;20335;-76
2022/02/20 07:26:38;;;;;;;2.13;0.70;;;31.40;89.70;;;;;;5046212;28;20201;-76
2022/02/20 07:29:06;;;;;;;2.25;0.50;;;31.40;89.50;;;;;;5045229;28;20322;-76
2022/02/20 07:31:33;;;;;;;1.25;0.60;;;31.40;89.40;;;;;;5046108;28;20490;-77
2022/02/20 07:34:00;;;;;;;1.88;0.60;;;31.30;89.80;;;;;;5048865;28;20024;-77
2022/02/20 07:36:28;;;;;;;3.28;0.75;;;31.20;90.00;;;;;;5050363;28;20417;-73
2022/02/20 07:38:55;;;;;;;4.43;0.80;;;31.10;90.20;;;;;;5040447;28;20025;-79
2022/02/20 07:41:22;;;;;;;3.13;0.80;;;31.10;90.10;;;;;;5037800;28;20021;-80
2022/02/20 07:43:50;;;;;;;1.60;0.80;;;31.00;90.30;;;;;;5042123;28;20095;-77
2022/02/20 07:46:18;;;;;;;3.85;1.35;;;31.00;90.00;;;;;;5043108;28;20029;-82
2022/02/20 07:48:46;;;;;;;1.77;0.60;;;30.90;90.40;;;;;;5043020;28;20023;-80
2022/02/20 07:51:14;;;;;;;4.95;1.70;;;30.90;90.60;;;;;;5048769;28;20036;-75
2022/02/20 07:53:43;;;;;;;2.67;1.15;;;30.80;91.20;;;;;;5044221;28;20037;-77
2022/02/20 07:56:12;;;;;;;7.10;1.33;;;30.60;91.60;;;;;;5049514;28;20392;-77
2022/02/20 07:58:40;;;;;;;2.88;0.90;;;30.40;91.90;;;;;;5046236;28;20028;-74
2022/02/20 08:01:07;;;;;;;3.13;0.98;;;30.30;92.20;;;;;;5036288;28;20497;-78
2022/02/20 08:03:35;;;;;;;4.50;1.05;;;30.20;92.40;;;;;;5043739;28;20041;-73
2022/02/20 08:06:03;;;;;;;4.72;1.05;;;30.10;92.60;;;;;;5040844;28;20041;-74
2022/02/20 08:08:31;;;;;;;5.68;1.73;;;30.00;92.70;;;;;;5045247;28;20032;-74
2022/02/20 08:11:00;;;;;;;5.28;1.40;;;30.00;92.90;;;;;;5047598;28;20029;-74
2022/02/20 08:13:28;;;;;;;2.42;1.20;;;30.00;93.10;;;;;;5042144;28;20044;-75
2022/02/20 08:15:57;;;;;;;8.20;1.80;;;29.90;93.30;;;;;;5050027;28;20029;-76
2022/02/20 08:18:25;;;;;;;5.82;1.52;;;29.80;93.50;;;;;;5046296;28;20028;-78
2022/02/20 08:20:53;;;;;;;4.18;1.33;;;29.60;93.90;;;;;;5048750;28;20124;-75
2022/02/20 08:23:20;;;;;;;6.95;1.77;;;29.50;94.30;;;;;;5049168;28;20468;-76
2022/02/20 08:25:48;;;;;;;7.22;1.90;;;29.40;94.60;;;;;;5047284;28;20055;-74
2022/02/20 08:28:15;;;;;;;3.92;1.65;;;29.20;94.80;;;;;;5049837;28;20494;-74
2022/02/20 08:30:43;;;;;;;8.00;2.35;;;29.20;95.00;;;;;;5048123;28;20029;-75
2022/02/20 08:33:10;;;;;;;8.25;2.30;;;29.10;95.10;;;;;;5045700;28;20484;-76
2022/02/20 08:35:38;;;;;;;9.52;2.78;;;29.10;95.10;;;;;;5049993;28;20032;-76
2022/02/20 08:38:08;;;;;;;8.77;2.63;;;29.00;95.30;;;;;;5047920;28;20067;-77
2022/02/20 08:40:39;;;;;;;5.03;2.10;;;28.90;95.60;;;;;;5045591;28;20479;-75
2022/02/20 08:43:07;;;;;;;4.75;1.50;;;28.80;95.80;;;;;;5047739;28;20049;-76
2022/02/20 08:45:34;;;;;;;4.13;1.45;;;28.70;95.90;;;;;;5047034;28;20391;-76
2022/02/20 08:48:04;;;;;;;4.85;1.40;;;28.70;96.40;;;;;;5048684;28;20048;-76
2022/02/20 08:50:32;;;;;;;5.25;1.77;;;28.50;96.60;;;;;;5050037;28;20368;-76
2022/02/20 08:52:59;;;;;;;4.78;1.73;;;28.40;96.80;;;;;;5048925;28;20052;-74
2022/02/20 08:55:27;;;;;;;5.65;1.60;;;28.30;97.00;;;;;;5048623;28;20649;-74
2022/02/20 08:57:54;;;;;;;3.20;1.15;;;28.20;97.10;;;;;;5046537;28;20495;-75
2022/02/20 09:00:22;;;;;;;4.30;1.50;;;28.20;97.20;;;;;;5050169;28;20376;-74
2022/02/20 09:02:49;;;;;;;5.20;1.35;;;28.20;97.30;;;;;;5049303;28;20060;-76
2022/02/20 09:05:17;;;;;;;4.57;1.13;;;28.00;97.50;;;;;;5049423;28;20442;-78
2022/02/20 09:07:44;;;;;;;5.40;1.73;;;27.90;97.60;;;;;;5047517;28;20028;-75
2022/02/20 09:10:12;;;;;;;3.63;2.15;;;27.80;97.70;;;;;;5045343;28;20377;-75
2022/02/20 09:12:41;;;;;;;6.82;1.65;;;27.70;97.80;;;;;;5038707;28;20652;-75
2022/02/20 09:15:10;;;;;;;6.72;1.20;;;27.60;97.90;;;;;;5039561;28;20396;-77
2022/02/20 09:17:38;;;;;;;3.92;1.75;;;27.60;98.00;;;;;;5038741;28;20444;-75
2022/02/20 09:20:06;;;;;;;3.88;1.15;;;27.50;98.00;;;;;;5039378;28;20033;-75
2022/02/20 09:22:34;;;;;;;11.75;1.75;;;27.40;98.20;;;;;;5038486;28;20029;-74
2022/02/20 09:25:02;;;;;;;3.38;1.40;;;27.40;98.60;;;;;;5035453;28;20432;-79
2022/02/20 09:27:29;;;;;;;4.95;1.17;;;27.40;98.30;;;;;;5036159;28;20498;-74
2022/02/20 09:29:56;;;;;;;1.83;1.02;;;27.30;98.30;;;;;;5042832;28;20087;-74
2022/02/20 09:32:26;;;;;;;12.70;2.03;;;27.40;98.30;;;;;;5042879;28;20087;-75
2022/02/20 09:34:53;;;;;;;5.63;1.60;;;27.30;98.30;;;;;;5043782;28;20090;-75
2022/02/20 09:37:21;;;;;;;4.25;1.13;;;27.40;98.30;;;;;;5042521;28;20056;-76
2022/02/20 09:39:48;;;;;;;3.88;1.17;;;27.30;98.50;;;;;;5053679;28;20124;-73
2022/02/20 09:42:16;;;;;;;6.90;1.60;;;27.20;98.40;;;;;;5045873;28;20494;-75
2022/02/20 09:44:44;;;;;;;5.95;1.95;;;27.10;98.40;;;;;;5044812;28;20148;-75
2022/02/20 09:47:15;;;;;;;5.55;1.60;;;27.00;98.60;;;;;;5045645;28;20073;-76
2022/02/20 09:49:45;;;;;;;9.55;1.80;;;26.80;98.80;;;;;;5051476;28;20029;-76
2022/02/20 09:52:13;;;;;;;9.25;2.70;;;26.80;98.80;;;;;;5050829;28;20017;-76
2022/02/20 09:54:40;;;;;;;8.43;2.20;;;26.70;98.80;;;;;;5052761;28;20032;-76
2022/02/20 09:57:08;;;;;;;8.23;2.03;;;26.70;99.00;;;;;;5045924;28;20040;-77
2022/02/20 09:59:35;;;;;;;6.38;2.25;;;26.60;99.00;;;;;;5050063;28;20039;-76
2022/02/20 10:02:10;;;;;;;13.65;4.07;;;26.60;99.10;;;;;;5050924;28;20033;-76
2022/02/20 10:04:47;;;;;;;7.38;1.92;;;26.50;99.20;;;;;;5051362;28;20085;-76
2022/02/20 10:07:35;;;;;;;10.02;2.30;;;26.40;99.30;;;;;;5047615;28;20041;-73
2022/02/20 10:10:16;;;;;;;15.60;2.55;;;26.40;99.50;;;;;;5051138;28;20578;-74
2022/02/20 10:12:45;;;;;;;8.57;1.90;;;26.40;99.40;;;;;;5045904;28;20033;-75
2022/02/20 10:15:39;;;;;;;9.50;2.22;;;26.30;99.50;;;;;;5042568;28;20037;-76
2022/02/20 10:18:14;;;;;;;4.57;2.30;;;26.20;99.60;;;;;;5045125;28;20415;-74
2022/02/20 10:20:42;;;;;;;12.07;2.70;;;26.20;99.70;;;;;;5050350;28;20037;-77
2022/02/20 10:23:14;;;;;;;7.50;2.00;;;26.20;99.80;;;;;;5043639;28;20109;-76
2022/02/20 10:25:44;;;;;;;6.90;1.30;;;26.10;99.90;;;;;;5040627;28;20045;-75
2022/02/20 10:28:12;;;;;;;8.50;2.03;;;26.10;99.90;;;;;;5042057;28;22379;-77
2022/02/20 10:30:39;;;;;;;6.13;1.75;;;26.10;99.90;;;;;;5044298;28;20112;-76
2022/02/20 10:33:20;;;;;;;3.67;1.23;;;26.10;99.90;;;;;;5045544;28;20051;-75
2022/02/20 10:35:49;;;;;;;6.30;1.40;;;26.00;99.90;;;;;;5044804;28;20041;-75
2022/02/20 10:38:23;;;;;;;5.32;1.70;;;26.00;99.90;;;;;;5046152;28;20638;-75
2022/02/20 10:40:55;;;;;;;8.35;1.58;;;26.00;99.90;;;;;;5045772;28;20397;-75
2022/02/20 10:43:33;;;;;;;4.45;1.35;;;26.00;99.90;;;;;;5047896;28;20792;-76
2022/02/20 10:46:17;;;;;;;6.50;1.20;;;26.00;99.90;;;;;;5049309;28;20171;-76
2022/02/20 10:48:53;;;;;;;7.28;1.85;;;26.00;99.90;;;;;;5051235;28;20048;-75
2022/02/20 10:51:22;;;;;;;7.15;1.50;;;25.90;99.90;;;;;;5059857;28;20032;-75
2022/02/20 10:53:50;;;;;;;6.32;1.33;;;25.90;99.90;;;;;;5038999;28;20108;-76
2022/02/20 10:56:18;;;;;;;10.75;1.38;;;25.80;99.90;;;;;;5044651;28;20128;-77
2022/02/20 10:58:51;;;;;;;6.65;1.48;;;25.80;99.90;;;;;;5040385;28;20033;-76
2022/02/20 11:01:24;;;;;;;7.57;1.75;;;25.80;99.90;;;;;;5053298;28;20040;-78
2022/02/20 11:04:11;;;;;;;10.02;1.88;;;25.80;99.90;;;;;;5051003;28;20044;-74
2022/02/20 11:06:39;;;;;;;8.32;1.88;;;25.70;99.90;;;;;;5051412;28;20689;-73
2022/02/20 11:09:07;;;;;;;3.42;1.23;;;25.80;99.90;;;;;;5048014;28;20103;-75
2022/02/20 11:11:38;;;;;;;6.90;2.05;;;25.80;99.90;;;;;;5048579;28;20032;-76
2022/02/20 11:14:23;;;;;;;8.00;1.98;;;25.80;99.90;;;;;;5048376;28;20111;-76
2022/02/20 11:16:53;;;;;;;2.97;1.00;;;25.70;99.90;;;;;;5045513;28;20021;-74
2022/02/20 11:19:27;;;;;;;5.03;1.60;;;25.70;99.90;;;;;;5050588;28;20036;-75
2022/02/20 11:22:01;;;;;;;5.53;1.10;;;25.60;99.90;;;;;;5037619;28;20044;-75
2022/02/20 11:24:33;;;;;;;13.43;1.95;;;25.60;99.90;;;;;;5047422;28;20017;-75
2022/02/20 11:27:03;;;;;;;5.78;1.75;;;25.50;99.90;;;;;;5049347;28;20155;-75
2022/02/20 11:29:30;;;;;;;9.57;1.80;;;25.50;99.90;;;;;;5048344;28;20467;-74
2022/02/20 11:31:59;;;;;;;5.13;2.05;;;25.50;99.90;;;;;;5046453;28;20079;-73
2022/02/20 11:34:27;;;;;;;6.65;2.47;;;25.40;99.90;;;;;;5046504;28;20028;-73
2022/02/20 11:36:57;;;;;;;7.05;2.33;;;25.30;99.90;;;;;;5048854;28;20113;-73
2022/02/20 11:39:29;;;;;;;5.25;1.33;;;25.30;99.90;;;;;;5047176;28;20021;-73
2022/02/20 11:42:15;;;;;;;4.50;1.92;;;25.30;99.90;;;;;;5048368;28;20032;-74
2022/02/20 11:44:54;;;;;;;6.13;1.83;;;25.30;99.90;;;;;;5044652;28;20048;-76
2022/02/20 11:47:40;;;;;;;9.27;1.98;;;25.30;99.90;;;;;;5044168;28;20036;-74
2022/02/20 11:50:16;;;;;;;6.20;1.50;;;25.20;99.90;;;;;;5046785;28;20036;-74
2022/02/20 11:52:54;;;;;;;7.72;2.47;;;25.20;99.90;;;;;;5049045;28;20067;-76
2022/02/20 11:55:29;;;;;;;6.18;1.70;;;25.20;99.90;;;;;;5047449;28;20051;-75
2022/02/20 11:58:32;;;;;;;6.78;1.55;;;25.20;99.90;;;;;;5044069;28;20044;-74
2022/02/20 12:00:59;;;;;;;10.07;1.65;;;25.20;99.90;;;;;;5047580;28;20360;-75
2022/02/20 12:03:28;;;;;;;7.88;2.92;;;25.10;99.90;;;;;;5048072;28;20502;-78
2022/02/20 12:06:11;;;;;;;5.50;1.92;;;25.10;99.90;;;;;;5046611;28;20551;-75
2022/02/20 12:08:44;;;;;;;4.63;1.58;;;25.00;99.90;;;;;;5047853;28;20032;-74
2022/02/20 12:11:16;;;;;;;10.13;1.67;;;25.00;99.90;;;;;;5047712;28;20163;-76
2022/02/20 12:13:46;;;;;;;8.70;2.42;;;25.00;99.90;;;;;;5047394;28;20375;-75
2022/02/20 12:16:20;;;;;;;8.27;3.15;;;25.00;99.90;;;;;;5041362;28;20044;-75
2022/02/20 12:19:37;;;;;;;5.97;1.70;;;25.00;99.90;;;;;;5047903;28;20029;-75
2022/02/20 12:22:25;;;;;;;5.05;1.40;;;25.10;99.90;;;;;;5001552;28;20017;-76
2022/02/20 12:24:58;;;;;;;11.40;1.73;;;25.00;99.90;;;;;;5003485;28;20518;-75
2022/02/20 12:27:36;;;;;;;7.28;1.95;;;25.00;99.90;;;;;;5034739;28;20045;-74
2022/02/20 12:30:19;;;;;;;8.60;2.55;;;24.90;99.90;;;;;;5046763;28;20357;-74
2022/02/20 12:32:50;;;;;;;4.72;1.50;;;24.90;99.90;;;;;;5044308;28;20377;-76
2022/02/20 12:35:21;;;;;;;8.93;3.45;;;24.90;99.90;;;;;;5047808;28;20028;-74
2022/02/20 12:37:51;;;;;;;11.13;1.52;;;24.90;99.90;;;;;;5042893;28;20491;-75
2022/02/20 12:40:27;;;;;;;11.30;2.15;;;24.90;99.90;;;;;;5046833;28;20028;-76
2022/02/20 12:42:58;;;;;;;4.78;1.50;;;24.90;99.90;;;;;;5049325;28;20053;-77
2022/02/20 12:45:29;;;;;;;9.82;2.58;;;24.80;99.90;;;;;;5045297;28;20069;-76
2022/02/20 12:47:58;;;;;;;7.68;1.65;;;24.70;99.90;;;;;;5046898;28;20017;-76
2022/02/20 12:50:28;;;;;;;7.88;2.45;;;24.70;99.90;;;;;;5045135;28;20487;-76
2022/02/20 12:52:58;;;;;;;8.65;2.33;;;24.60;99.90;;;;;;5044116;28;20128;-75
2022/02/20 12:55:26;;;;;;;9.32;2.35;;;24.60;99.90;;;;;;5045299;28;20043;-76
2022/02/20 12:58:03;;;;;;;5.78;2.15;;;24.50;99.90;;;;;;5048107;28;20025;-76
2022/02/20 13:00:36;;;;;;;7.68;1.83;;;24.50;99.90;;;;;;5045091;28;20024;-76